Kezdőlap
METAR-TAF:

METAR-TAF

Repülőterek :

Langkawi, Malajzia

földrajzi szélesség: 06-20N, földrajzi hosszúság: 099-44E, magasság: 8 m

Jelenlegi meteorológiai megfigyelések

A jelentés 1 órával és 9 perccel ezelõtt készült, 08:00 UTC
Különbözõ irányokból fújó szél 5 kt
Hőmérséklet 32°C
Páratartalom 71%
Légköri nyomás 1007 hPa
Látótávolság 10 km, vagy több
Kevés felhő 1700 lábon, Cumulonimbus.

METAR: WMKL 170800Z VRB05KT 9999 FEW017CB 32/26 Q1007

Idő: 17:09 (09:09 UTC)

Előrejelzés

A jelentés 4 órával és 9 perccel ezelõtt készült, 05:00 UTC
Az előrejelzés 17-én 06 óra UTC és 18-én 06 óra UTC között érvényes
Különbözõ irányokból fújó szél 5 kt
Látótávolság 10 km, vagy több
Kevés felhő 2000 lábon

TAF: WMKL 170500Z 1706/1806 VRB05KT 9999 FEW020

Meteorológiai megfigyelések és előrejelzések több, mint 4000 repülőtéren (METAR és TAF jelentéseket).

A térképen piros és sárga pontok jelzik az elérhető meteorológiai állomásokat.

Mozgassa az egeret a pont fölött, hogy megjelenjen az állomás neve.

Azután kattintson az időjárási megfigyelések és előrejelzések megtekintéséhez.

A térkép megváltoztatása: kattintson a fekete keresztel jelölt zöld gombra ráközelítéshez, a vonallal jelölt zöld gombra távolításhoz, vagy a zöld nyilakra a szomszédos térképek eléréséhez.


METAR-TAF: